createdAt,value
2018-03-31T00:01:43.558Z,13.20
2018-03-31T00:04:11.427Z,17.63
2018-03-31T00:06:38.375Z,17.43
2018-03-31T00:09:05.318Z,16.30
2018-03-31T00:11:32.261Z,16.60
2018-03-31T00:13:59.208Z,17.43
2018-03-31T00:16:26.212Z,14.17
2018-03-31T00:18:53.198Z,15.87
2018-03-31T00:21:20.201Z,16.27
2018-03-31T00:23:47.118Z,13.97
2018-03-31T00:26:14.059Z,16.33
2018-03-31T00:28:41.916Z,15.27
2018-03-31T00:31:08.847Z,13.40
2018-03-31T00:33:35.787Z,14.27
2018-03-31T00:36:02.735Z,12.90
2018-03-31T00:38:30.442Z,13.60
2018-03-31T00:40:57.372Z,17.07
2018-03-31T00:43:25.070Z,11.33
2018-03-31T00:45:52.030Z,16.00
2018-03-31T00:48:18.979Z,15.93
2018-03-31T00:50:45.891Z,16.50
2018-03-31T00:53:12.870Z,16.47
2018-03-31T00:55:39.889Z,17.13
2018-03-31T00:58:06.816Z,16.67
2018-03-31T01:00:33.761Z,17.13
2018-03-31T01:03:00.698Z,16.97
2018-03-31T01:05:28.430Z,16.50
2018-03-31T01:07:55.377Z,16.17
2018-03-31T01:10:22.302Z,16.00
2018-03-31T01:12:49.244Z,12.47
2018-03-31T01:15:16.940Z,16.63
2018-03-31T01:17:43.955Z,15.70
2018-03-31T01:20:10.899Z,15.80
2018-03-31T01:22:37.830Z,17.47
2018-03-31T01:25:04.759Z,18.10
2018-03-31T01:27:31.706Z,16.37
2018-03-31T01:29:59.426Z,15.93
2018-03-31T01:32:26.375Z,16.53
2018-03-31T01:34:53.340Z,16.13
2018-03-31T01:37:20.258Z,17.20
2018-03-31T01:39:47.206Z,15.50
2018-03-31T01:42:14.903Z,17.40
2018-03-31T01:44:41.847Z,16.60
2018-03-31T01:47:08.798Z,17.20
2018-03-31T01:49:36.491Z,16.10
2018-03-31T01:52:03.434Z,17.30
2018-03-31T01:54:30.392Z,16.70
2018-03-31T01:56:58.088Z,18.80
2018-03-31T01:59:25.049Z,14.20
2018-03-31T02:01:51.961Z,16.40
2018-03-31T02:04:19.668Z,16.63
2018-03-31T02:06:46.620Z,23.07
2018-03-31T02:09:14.398Z,30.77
2018-03-31T02:11:41.373Z,19.80
2018-03-31T02:14:08.298Z,16.13
2018-03-31T02:16:35.994Z,22.43
2018-03-31T02:19:02.930Z,21.23
2018-03-31T02:21:29.874Z,18.10
2018-03-31T02:23:57.582Z,17.07
2018-03-31T02:26:24.514Z,17.47
2018-03-31T02:28:52.202Z,17.67
2018-03-31T02:31:19.146Z,18.40
2018-03-31T02:33:46.850Z,18.47
2018-03-31T02:36:14.917Z,18.70
2018-03-31T02:38:41.858Z,18.20
2018-03-31T02:41:09.573Z,18.20
2018-03-31T02:43:36.521Z,18.40
2018-03-31T02:46:03.440Z,18.13
2018-03-31T02:48:30.354Z,18.63
2018-03-31T02:50:57.330Z,18.47
2018-03-31T02:53:24.243Z,19.20
2018-03-31T02:55:51.207Z,19.47
2018-03-31T02:58:18.187Z,18.57
2018-03-31T03:00:45.154Z,17.40
2018-03-31T03:03:12.088Z,20.07
2018-03-31T03:05:39.080Z,18.90
2018-03-31T03:08:05.992Z,18.47
2018-03-31T03:10:32.957Z,19.57
2018-03-31T03:12:59.878Z,20.10
2018-03-31T03:15:27.578Z,19.40
2018-03-31T03:17:54.518Z,19.77
2018-03-31T03:20:21.463Z,17.40
2018-03-31T03:22:49.180Z,20.40
2018-03-31T03:25:16.101Z,20.30
2018-03-31T03:27:44.721Z,19.87
2018-03-31T03:30:11.674Z,19.97
2018-03-31T03:32:38.599Z,20.90
2018-03-31T03:35:06.304Z,19.73
2018-03-31T03:37:33.249Z,20.40
2018-03-31T03:40:00.170Z,19.77
2018-03-31T03:42:27.113Z,20.50
2018-03-31T03:44:54.027Z,20.97
2018-03-31T03:47:20.945Z,19.47
2018-03-31T03:49:47.930Z,21.07
2018-03-31T03:52:16.142Z,19.98
2018-03-31T03:54:43.042Z,19.23
2018-03-31T03:57:09.991Z,19.60
2018-03-31T03:59:36.929Z,20.43
2018-03-31T04:02:03.845Z,20.20
2018-03-31T04:04:30.772Z,19.30
2018-03-31T04:06:58.503Z,20.47
2018-03-31T04:09:25.422Z,19.50
2018-03-31T04:11:53.110Z,19.83
2018-03-31T04:14:20.033Z,20.70
2018-03-31T04:16:47.746Z,20.87
2018-03-31T04:19:15.606Z,20.70
2018-03-31T04:21:43.303Z,21.50
2018-03-31T04:24:10.240Z,23.43
2018-03-31T04:26:37.187Z,22.83
2018-03-31T04:29:04.869Z,25.03
2018-03-31T04:31:31.789Z,25.60
2018-03-31T04:33:58.731Z,25.47
2018-03-31T04:36:25.690Z,24.63
2018-03-31T04:38:52.623Z,23.90
2018-03-31T04:41:19.559Z,23.77
2018-03-31T04:43:46.506Z,27.87
2018-03-31T04:46:14.205Z,25.80
2018-03-31T04:48:41.163Z,26.60
2018-03-31T04:51:08.094Z,25.47
2018-03-31T04:53:35.002Z,27.60
2018-03-31T04:56:01.965Z,27.07
2018-03-31T04:58:28.914Z,28.60
2018-03-31T05:00:55.853Z,25.70
2018-03-31T05:03:22.805Z,25.53
2018-03-31T05:05:49.766Z,25.27
2018-03-31T05:08:16.700Z,24.03
2018-03-31T05:10:44.392Z,24.90
2018-03-31T05:13:11.322Z,24.97
2018-03-31T05:15:39.687Z,24.27
2018-03-31T05:18:06.620Z,24.27
2018-03-31T05:20:33.543Z,25.30
2018-03-31T05:23:00.490Z,25.40
2018-03-31T05:25:28.190Z,27.07
2018-03-31T05:27:55.139Z,25.57
2018-03-31T05:30:22.068Z,26.03
2018-03-31T05:32:49.761Z,25.80
2018-03-31T05:35:17.772Z,27.13
2018-03-31T05:37:44.732Z,26.17
2018-03-31T05:40:11.737Z,25.83
2018-03-31T05:42:38.674Z,25.77
2018-03-31T05:45:05.595Z,25.03
2018-03-31T05:47:32.542Z,26.43
2018-03-31T05:50:00.273Z,25.10
2018-03-31T05:52:27.200Z,25.08
2018-03-31T05:54:54.143Z,24.43
2018-03-31T05:57:21.175Z,24.13
2018-03-31T05:59:48.095Z,23.10
2018-03-31T06:02:15.023Z,22.37
2018-03-31T06:04:41.967Z,24.77
2018-03-31T06:07:09.074Z,23.47
2018-03-31T06:09:35.986Z,22.37
2018-03-31T06:12:02.910Z,22.93
2018-03-31T06:14:30.660Z,24.20
2018-03-31T06:16:57.586Z,22.87
2018-03-31T06:19:24.526Z,24.33
2018-03-31T06:21:51.477Z,21.60
2018-03-31T06:24:18.428Z,22.67
2018-03-31T06:26:45.367Z,23.40
2018-03-31T06:29:13.070Z,24.07
2018-03-31T06:31:40.000Z,23.90
2018-03-31T06:34:07.683Z,23.63
2018-03-31T06:36:35.390Z,23.27
2018-03-31T06:39:02.345Z,24.35
2018-03-31T06:41:29.292Z,22.17
2018-03-31T06:43:56.230Z,23.37
2018-03-31T06:46:23.911Z,23.33
2018-03-31T06:48:50.850Z,23.63
2018-03-31T06:51:18.842Z,22.40
2018-03-31T06:53:45.781Z,24.10
2018-03-31T06:56:12.738Z,23.07
2018-03-31T06:58:39.671Z,20.30
2018-03-31T07:01:06.618Z,22.63
2018-03-31T07:03:33.617Z,25.30
2018-03-31T07:06:00.609Z,25.13
2018-03-31T07:08:27.542Z,21.70
2018-03-31T07:10:54.484Z,24.12
2018-03-31T07:13:22.212Z,26.52
2018-03-31T07:15:49.146Z,26.00
2018-03-31T07:18:16.062Z,22.63
2018-03-31T07:20:43.093Z,24.60
2018-03-31T07:23:10.323Z,23.80
2018-03-31T07:25:37.264Z,20.77
2018-03-31T07:28:04.950Z,24.40
2018-03-31T07:30:31.886Z,24.73
2018-03-31T07:32:59.825Z,23.08
2018-03-31T07:35:26.779Z,25.40
2018-03-31T07:37:53.937Z,24.30
2018-03-31T07:40:20.871Z,25.17
2018-03-31T07:42:49.516Z,22.27
2018-03-31T07:45:16.464Z,24.67
2018-03-31T07:47:43.422Z,25.23
2018-03-31T07:50:10.357Z,20.77
2018-03-31T07:52:37.274Z,22.27
2018-03-31T07:55:04.201Z,23.90
2018-03-31T07:57:31.957Z,24.63
2018-03-31T07:59:58.898Z,24.50
2018-03-31T08:02:25.848Z,24.70
2018-03-31T08:04:52.815Z,24.67
2018-03-31T08:07:19.764Z,22.90
2018-03-31T08:09:47.408Z,23.50
2018-03-31T08:12:14.347Z,25.40
2018-03-31T08:14:41.300Z,24.03
2018-03-31T08:17:09.030Z,25.60
2018-03-31T08:19:35.981Z,24.00
2018-03-31T08:22:02.917Z,23.73
2018-03-31T08:24:29.869Z,20.97
2018-03-31T08:26:56.811Z,22.50
2018-03-31T08:29:24.521Z,22.07
2018-03-31T08:31:51.450Z,24.33
2018-03-31T08:34:20.070Z,25.50
2018-03-31T08:36:47.011Z,22.70
2018-03-31T08:39:14.721Z,24.07
2018-03-31T08:41:41.740Z,24.83
2018-03-31T08:44:08.650Z,22.93
2018-03-31T08:46:35.574Z,24.13
2018-03-31T08:49:02.530Z,23.77
2018-03-31T08:51:29.465Z,23.70
2018-03-31T08:53:57.197Z,23.80
2018-03-31T08:56:24.147Z,15.55
2018-03-31T08:58:51.121Z,22.00
2018-03-31T09:01:18.081Z,21.23
2018-03-31T09:03:45.024Z,22.07
2018-03-31T09:06:11.955Z,23.37
2018-03-31T09:08:38.914Z,25.17
2018-03-31T09:11:05.835Z,20.63
2018-03-31T09:13:32.778Z,22.77
2018-03-31T09:16:00.461Z,24.40
2018-03-31T09:18:28.182Z,23.40
2018-03-31T09:20:55.094Z,23.43
2018-03-31T09:23:22.830Z,21.57
2018-03-31T09:25:51.275Z,21.20
2018-03-31T09:28:18.218Z,23.40
2018-03-31T09:30:45.910Z,22.17
2018-03-31T09:33:12.857Z,22.27
2018-03-31T09:35:40.543Z,21.50
2018-03-31T09:38:07.475Z,21.60
2018-03-31T09:40:35.162Z,24.27
2018-03-31T09:43:02.869Z,22.07
2018-03-31T09:45:29.828Z,21.10
2018-03-31T09:47:56.754Z,21.73
2018-03-31T09:50:23.690Z,21.77
2018-03-31T09:52:51.818Z,22.87
2018-03-31T09:55:18.779Z,22.20
2018-03-31T09:57:45.732Z,22.03
2018-03-31T10:00:12.684Z,23.87
2018-03-31T10:02:39.640Z,130.70
2018-03-31T10:05:06.563Z,87.83
2018-03-31T10:07:34.257Z,25.50
2018-03-31T10:10:01.959Z,21.77
2018-03-31T10:12:28.929Z,21.13
2018-03-31T10:14:55.854Z,21.60
2018-03-31T10:17:22.785Z,23.03
2018-03-31T10:19:51.406Z,21.20
2018-03-31T10:22:18.372Z,22.23
2018-03-31T10:24:45.323Z,22.43
2018-03-31T10:27:12.270Z,19.80
2018-03-31T10:29:39.256Z,23.90
2018-03-31T10:32:06.174Z,22.90
2018-03-31T10:34:33.124Z,21.45
2018-03-31T10:37:00.809Z,21.83
2018-03-31T10:39:27.786Z,22.00
2018-03-31T10:41:54.704Z,23.17
2018-03-31T10:44:21.962Z,22.35
2018-03-31T10:46:48.909Z,21.60
2018-03-31T10:49:15.861Z,21.50
2018-03-31T10:51:42.971Z,21.67
2018-03-31T10:54:10.668Z,22.40
2018-03-31T10:56:37.603Z,22.20
2018-03-31T10:59:04.525Z,21.57
2018-03-31T11:01:32.265Z,21.90
2018-03-31T11:03:59.226Z,22.83
2018-03-31T11:06:26.182Z,21.70
2018-03-31T11:08:53.141Z,22.23
2018-03-31T11:11:20.059Z,22.00
2018-03-31T11:13:47.038Z,20.57
2018-03-31T11:16:13.970Z,22.23
2018-03-31T11:18:40.939Z,22.80
2018-03-31T11:21:07.862Z,21.37
2018-03-31T11:23:34.812Z,21.70
2018-03-31T11:26:01.728Z,18.83
2018-03-31T11:28:28.691Z,20.80
2018-03-31T11:30:55.616Z,21.63
2018-03-31T11:33:23.610Z,21.53
2018-03-31T11:35:50.539Z,20.67
2018-03-31T11:38:17.482Z,20.40
2018-03-31T11:40:45.186Z,18.90
2018-03-31T11:43:12.130Z,17.47
2018-03-31T11:45:39.066Z,17.60
2018-03-31T11:48:06.806Z,18.70
2018-03-31T11:50:33.744Z,18.60
2018-03-31T11:53:01.612Z,18.30
2018-03-31T11:55:29.285Z,17.90
2018-03-31T11:57:56.209Z,17.63
2018-03-31T12:00:23.965Z,18.17
2018-03-31T12:02:50.874Z,17.13
2018-03-31T12:05:17.855Z,17.93
2018-03-31T12:07:44.795Z,17.17
2018-03-31T12:10:11.730Z,16.93
2018-03-31T12:12:38.655Z,16.83
2018-03-31T12:15:05.616Z,16.70
2018-03-31T12:17:32.546Z,17.73
2018-03-31T12:19:59.485Z,17.80
2018-03-31T12:22:26.428Z,18.40
2018-03-31T12:24:54.205Z,17.90
2018-03-31T12:27:21.136Z,17.17
2018-03-31T12:29:48.858Z,17.47
2018-03-31T12:32:15.824Z,17.20
2018-03-31T12:34:42.763Z,15.83
2018-03-31T12:37:09.714Z,16.40
2018-03-31T12:39:36.716Z,16.58
2018-03-31T12:42:04.447Z,15.32
2018-03-31T12:44:31.395Z,14.50
2018-03-31T12:46:58.334Z,14.27
2018-03-31T12:49:26.072Z,14.47
2018-03-31T12:51:54.515Z,13.73
2018-03-31T12:54:21.430Z,14.63
2018-03-31T12:56:48.374Z,14.80
2018-03-31T12:59:15.428Z,14.10
2018-03-31T13:01:42.355Z,14.50
2018-03-31T13:04:09.309Z,14.20
2018-03-31T13:06:36.226Z,14.33
2018-03-31T13:09:03.933Z,15.57
2018-03-31T13:11:30.858Z,14.80
2018-03-31T13:13:58.559Z,14.70
2018-03-31T13:16:25.492Z,14.17
2018-03-31T13:18:54.123Z,14.77
2018-03-31T13:21:21.071Z,12.63
2018-03-31T13:23:48.010Z,12.00
2018-03-31T13:26:15.727Z,13.57
2018-03-31T13:28:42.674Z,12.87
2018-03-31T13:31:09.616Z,13.62
2018-03-31T13:33:37.318Z,12.87
2018-03-31T13:36:04.313Z,11.60
2018-03-31T13:38:31.229Z,11.53
2018-03-31T13:40:58.176Z,12.97
2018-03-31T13:43:25.118Z,12.53
2018-03-31T13:45:52.061Z,12.33
2018-03-31T13:48:18.997Z,13.00
2018-03-31T13:50:46.782Z,13.63
2018-03-31T13:53:13.705Z,13.10
2018-03-31T13:55:40.722Z,12.30
2018-03-31T13:58:07.654Z,12.20
2018-03-31T14:00:35.395Z,12.33
2018-03-31T14:03:02.363Z,12.80
2018-03-31T14:05:29.339Z,12.53
2018-03-31T14:07:56.261Z,12.83
2018-03-31T14:10:23.199Z,12.87
2018-03-31T14:12:50.158Z,13.37
2018-03-31T14:15:17.193Z,11.93
2018-03-31T14:17:44.902Z,13.10
2018-03-31T14:20:11.955Z,13.60
2018-03-31T14:22:38.896Z,13.40
2018-03-31T14:25:05.854Z,13.10
2018-03-31T14:27:32.883Z,13.43
2018-03-31T14:29:59.867Z,14.00
2018-03-31T14:32:26.789Z,13.93
2018-03-31T14:34:53.729Z,13.70
2018-03-31T14:37:20.672Z,12.83
2018-03-31T14:39:47.613Z,12.80
2018-03-31T14:42:14.603Z,13.67
2018-03-31T14:44:41.613Z,14.10
2018-03-31T14:47:08.566Z,13.77
2018-03-31T14:49:36.317Z,14.47
2018-03-31T14:52:04.077Z,14.87
2018-03-31T14:54:31.014Z,14.00
2018-03-31T14:56:57.970Z,14.30
2018-03-31T14:59:25.474Z,13.77
2018-03-31T15:01:53.211Z,14.60
2018-03-31T15:04:20.147Z,14.10
2018-03-31T15:06:47.079Z,14.30
2018-03-31T15:09:14.799Z,14.90
2018-03-31T15:11:41.832Z,14.82
2018-03-31T15:14:08.762Z,15.63
2018-03-31T15:16:36.599Z,14.90
2018-03-31T15:19:03.520Z,15.13
2018-03-31T15:21:30.496Z,14.57
2018-03-31T15:23:57.434Z,15.07
2018-03-31T15:26:24.378Z,14.30
2018-03-31T15:28:51.336Z,14.30
2018-03-31T15:31:19.008Z,15.00
2018-03-31T15:33:45.946Z,14.90
2018-03-31T15:36:13.710Z,14.53
2018-03-31T15:38:40.660Z,13.80
2018-03-31T15:41:07.633Z,14.50
2018-03-31T15:43:35.350Z,13.90
2018-03-31T15:46:02.370Z,13.90
2018-03-31T15:48:30.079Z,14.20
2018-03-31T15:50:57.026Z,14.90
2018-03-31T15:53:24.026Z,15.80
2018-03-31T15:55:50.945Z,15.67
2018-03-31T15:58:17.907Z,16.80
2018-03-31T16:00:44.855Z,15.43
2018-03-31T16:03:11.870Z,13.97
2018-03-31T16:05:38.821Z,13.60
2018-03-31T16:08:05.750Z,14.97
2018-03-31T16:10:32.712Z,13.97
2018-03-31T16:12:59.700Z,15.20
2018-03-31T16:15:26.630Z,15.27
2018-03-31T16:17:53.566Z,14.40
2018-03-31T16:20:20.552Z,15.07
2018-03-31T16:22:47.479Z,13.30
2018-03-31T16:25:14.440Z,14.80
2018-03-31T16:27:45.265Z,14.53
2018-03-31T16:30:12.633Z,14.20
2018-03-31T16:32:39.764Z,16.30
2018-03-31T16:35:06.938Z,15.13
2018-03-31T16:37:34.642Z,14.43
2018-03-31T16:40:01.649Z,14.60
2018-03-31T16:42:28.650Z,15.27
2018-03-31T16:44:57.253Z,14.80
2018-03-31T16:47:24.215Z,15.77
2018-03-31T16:49:51.146Z,16.48
2018-03-31T16:52:18.886Z,15.80
2018-03-31T16:54:45.835Z,16.53
2018-03-31T16:57:12.781Z,16.17
2018-03-31T16:59:39.711Z,15.70
2018-03-31T17:02:06.665Z,15.97
2018-03-31T17:04:34.354Z,19.00
2018-03-31T17:07:01.313Z,17.10
2018-03-31T17:09:28.256Z,13.13
2018-03-31T17:11:55.248Z,17.00
2018-03-31T17:14:22.210Z,16.80
2018-03-31T17:16:49.129Z,14.93
2018-03-31T17:19:16.821Z,16.87
2018-03-31T17:21:43.755Z,15.47
2018-03-31T17:24:10.726Z,16.08
2018-03-31T17:26:37.718Z,15.97
2018-03-31T17:29:04.647Z,16.40
2018-03-31T17:31:31.571Z,14.40
2018-03-31T17:33:59.277Z,9.90
2018-03-31T17:36:26.259Z,16.00
2018-03-31T17:38:53.187Z,17.20
2018-03-31T17:41:20.122Z,16.83
2018-03-31T17:43:47.081Z,11.50
2018-03-31T17:46:14.792Z,15.13
2018-03-31T17:48:41.737Z,16.97
2018-03-31T17:51:08.668Z,17.50
2018-03-31T17:53:35.679Z,16.77
2018-03-31T17:56:02.630Z,15.40
2018-03-31T17:58:29.570Z,15.07
2018-03-31T18:00:56.515Z,14.93
2018-03-31T18:03:23.440Z,15.30
2018-03-31T18:05:51.129Z,16.60
2018-03-31T18:08:18.082Z,15.93
2018-03-31T18:10:45.818Z,18.90
2018-03-31T18:13:12.766Z,17.60
2018-03-31T18:15:39.736Z,19.23
2018-03-31T18:18:06.676Z,18.20
2018-03-31T18:20:33.662Z,28.27
2018-03-31T18:23:00.684Z,38.93
2018-03-31T18:25:28.536Z,41.90
2018-03-31T18:27:55.480Z,40.20
2018-03-31T18:30:23.170Z,38.97
2018-03-31T18:32:50.135Z,41.00
2018-03-31T18:35:17.045Z,40.77
2018-03-31T18:37:43.970Z,37.57
2018-03-31T18:40:10.937Z,35.75
2018-03-31T18:42:37.879Z,36.70
2018-03-31T18:45:04.805Z,36.43
2018-03-31T18:47:31.746Z,39.00
2018-03-31T18:49:59.753Z,38.22
2018-03-31T18:52:26.690Z,28.50
2018-03-31T18:54:53.632Z,30.83
2018-03-31T18:57:22.793Z,35.00
2018-03-31T18:59:49.729Z,32.17
2018-03-31T19:02:16.703Z,29.07
2018-03-31T19:04:43.618Z,26.20
2018-03-31T19:07:11.360Z,30.87
2018-03-31T19:09:38.326Z,28.20
2018-03-31T19:12:05.270Z,28.80
2018-03-31T19:14:32.213Z,30.57
2018-03-31T19:17:05.873Z,30.98
2018-03-31T19:19:33.565Z,39.60
2018-03-31T19:22:00.527Z,39.72
2018-03-31T19:24:27.477Z,38.40
2018-03-31T19:26:55.175Z,33.57
2018-03-31T19:29:22.076Z,30.47
2018-03-31T19:31:49.001Z,32.07
2018-03-31T19:34:16.023Z,21.70
2018-03-31T19:36:42.887Z,25.90
2018-03-31T19:39:09.863Z,26.33
2018-03-31T19:41:36.805Z,22.13
2018-03-31T19:44:03.761Z,22.53
2018-03-31T19:46:30.691Z,20.83
2018-03-31T19:48:58.388Z,21.07
2018-03-31T19:51:25.431Z,22.80
2018-03-31T19:53:53.146Z,24.00
2018-03-31T19:56:20.106Z,25.27
2018-03-31T19:58:47.054Z,25.77
2018-03-31T20:01:14.000Z,25.27
2018-03-31T20:03:40.941Z,21.87
2018-03-31T20:06:07.891Z,22.13
2018-03-31T20:08:35.624Z,20.20
2018-03-31T20:11:02.539Z,20.47
2018-03-31T20:13:31.166Z,18.60
2018-03-31T20:15:58.097Z,18.70
2018-03-31T20:18:25.027Z,20.27
2018-03-31T20:20:51.964Z,20.53
2018-03-31T20:23:18.914Z,19.17
2018-03-31T20:25:45.880Z,19.70
2018-03-31T20:28:12.818Z,19.83
2018-03-31T20:30:39.749Z,20.35
2018-03-31T20:33:06.696Z,22.23
2018-03-31T20:35:33.630Z,19.33
2018-03-31T20:38:01.549Z,19.05
2018-03-31T20:40:28.500Z,20.53
2018-03-31T20:42:55.510Z,19.37
2018-03-31T20:45:22.470Z,18.77
2018-03-31T20:47:49.383Z,18.73
2018-03-31T20:50:16.342Z,18.10
2018-03-31T20:52:43.265Z,19.20
2018-03-31T20:55:10.200Z,12.67
2018-03-31T20:57:37.166Z,17.43
2018-03-31T21:00:04.070Z,16.85
2018-03-31T21:02:31.918Z,16.48
2018-03-31T21:04:58.868Z,16.87
2018-03-31T21:07:25.967Z,17.23
2018-03-31T21:09:52.883Z,18.60
2018-03-31T21:12:20.574Z,15.50
2018-03-31T21:14:47.498Z,18.10
2018-03-31T21:17:15.234Z,17.75
2018-03-31T21:19:42.247Z,16.03
2018-03-31T21:22:09.204Z,16.87
2018-03-31T21:24:36.143Z,18.57
2018-03-31T21:27:03.089Z,19.53
2018-03-31T21:29:30.019Z,18.40
2018-03-31T21:31:56.958Z,19.93
2018-03-31T21:34:23.911Z,21.70
2018-03-31T21:36:50.876Z,19.93
2018-03-31T21:39:17.790Z,17.05
2018-03-31T21:41:45.491Z,15.20
2018-03-31T21:44:12.443Z,19.27
2018-03-31T21:46:39.442Z,18.75
2018-03-31T21:49:06.417Z,18.33
2018-03-31T21:51:33.411Z,18.27
2018-03-31T21:54:00.359Z,20.00
2018-03-31T21:56:28.099Z,18.80
2018-03-31T21:58:55.014Z,19.33
2018-03-31T22:01:21.948Z,19.50
2018-03-31T22:03:48.866Z,20.50
2018-03-31T22:06:15.847Z,21.43
2018-03-31T22:08:43.563Z,21.17
2018-03-31T22:11:10.507Z,24.03
2018-03-31T22:13:43.175Z,24.35
2018-03-31T22:16:10.889Z,23.77
2018-03-31T22:18:37.843Z,25.40
2018-03-31T22:21:04.761Z,24.70
2018-03-31T22:23:33.426Z,24.67
2018-03-31T22:26:00.345Z,26.10
2018-03-31T22:28:27.335Z,26.57
2018-03-31T22:30:54.247Z,27.10
2018-03-31T22:33:21.197Z,27.20
2018-03-31T22:35:48.213Z,27.53
2018-03-31T22:38:15.389Z,27.50
2018-03-31T22:40:42.313Z,27.80
2018-03-31T22:43:09.264Z,28.73
2018-03-31T22:45:36.201Z,28.20
2018-03-31T22:48:03.194Z,30.20
2018-03-31T22:50:30.251Z,31.15
2018-03-31T22:52:57.288Z,30.42
2018-03-31T22:55:24.240Z,29.80
2018-03-31T22:57:51.175Z,31.02
2018-03-31T23:00:18.889Z,30.73
2018-03-31T23:02:45.839Z,30.75
2018-03-31T23:05:12.802Z,29.60
2018-03-31T23:07:39.770Z,30.30
2018-03-31T23:10:06.699Z,31.07
2018-03-31T23:12:33.668Z,28.63
2018-03-31T23:15:00.588Z,29.40
2018-03-31T23:17:28.328Z,30.43
2018-03-31T23:19:55.279Z,30.97
2018-03-31T23:22:22.222Z,31.80
2018-03-31T23:24:49.167Z,33.90
2018-03-31T23:27:16.114Z,34.57
2018-03-31T23:29:43.937Z,34.13
2018-03-31T23:32:11.701Z,32.43
2018-03-31T23:34:38.902Z,31.20
2018-03-31T23:37:05.831Z,32.70
2018-03-31T23:39:32.764Z,29.93
2018-03-31T23:41:59.701Z,30.20
2018-03-31T23:44:26.813Z,31.50
2018-03-31T23:46:53.731Z,35.30
2018-03-31T23:49:20.662Z,35.60
2018-03-31T23:51:47.833Z,35.20
2018-03-31T23:54:14.767Z,37.10
2018-03-31T23:56:42.539Z,39.03
2018-03-31T23:59:09.474Z,37.13
